Emmonak, Alaska
Current Conditions -  °F | °C
As of 2:36 AM on Tuesday 21 Oct 2014 (Local Time) from PAEM Reporting Station
Overcast Overcast  
Wind Chill: 22°   Ceiling: 3100
Heat Index: 30°   Visibility: 4mi
Dew Point: 25°   Wind: 9mph
Humidity: 80%   Direction: 360°N
Pressure: 29.31"   Gusts: NA
Location:  62.78°N, 164.53°W
Report Text: PAEM 211036Z 36008KT 4SM OVC031 M01/M04 A2931 RMK AO1
Loading
Personal Weather Stations






























Interactive Weather Map New forecast layout! Learn more

10-Day Weather Forecast

Advertisements
Track Severe Weather on mobile